Time;durP1;ratioP1;P1;durP2;ratioP2;P2;SDS_P1;SDS_P2;PMS_P1;PMS_P2;Temp;Humidity;BMP_temperature;BMP_pressure;BME280_temperature;BME280_humidity;BME280_pressure;Samples;Min_cycle;Max_cycle;Signal;HPM_P1;HPM_P2
2023/12/04 00:01:42;;;;;;;;;;;;;;;21.66;14.61;98715.84;5082398;28;19974;-85
2023/12/04 00:04:08;;;;;;;;;;;;;;;21.63;14.50;98713.88;5086584;28;19920;-85
2023/12/04 00:06:34;;;;;;;;;;;;;;;21.61;14.49;98710.69;5095212;28;19963;-85
2023/12/04 00:09:00;;;;;;;;;;;;;;;21.59;14.61;98722.25;5089948;28;19920;-85
2023/12/04 00:11:26;;;;;;;;;;;;;;;21.65;14.73;98717.88;5102311;28;20349;-85
2023/12/04 00:13:52;;;;;;;;;;;;;;;21.69;14.42;98720.66;5104482;28;19972;-85
2023/12/04 00:16:18;;;;;;;;;;;;;;;21.64;14.73;98715.47;5092290;28;19920;-85
2023/12/04 00:18:44;;;;;;;;;;;;;;;21.62;14.64;98715.06;5091443;28;19934;-85
2023/12/04 00:21:12;;;;;;;;;;;;;;;21.59;14.80;98725.06;5087215;28;20023;-85
2023/12/04 00:23:38;;;;;;;;;;;;;;;21.75;14.67;98716.25;5088172;28;19920;-85
2023/12/04 00:26:04;;;;;;;;;;;;;;;21.86;14.51;98725.44;5084496;28;20395;-85
2023/12/04 00:28:31;;;;;;;;;;;;;;;21.85;14.64;98729.41;5081321;28;19921;-85
2023/12/04 00:30:57;;;;;;;;;;;;;;;21.47;14.95;98728.25;5092644;28;19943;-85
2023/12/04 00:33:23;;;;;;;;;;;;;;;21.15;15.27;98728.28;5093579;28;19927;-85
2023/12/04 00:35:49;;;;;;;;;;;;;;;21.07;15.24;98734.28;5092260;28;20453;-85
2023/12/04 00:38:15;;;;;;;;;;;;;;;20.96;15.56;98739.00;5080256;28;19927;-85
2023/12/04 00:40:41;;;;;;;;;;;;;;;21.22;15.52;98724.69;5090034;28;19958;-85
2023/12/04 00:43:08;;;;;;;;;;;;;;;21.69;15.12;98726.22;5092910;28;19989;-85
2023/12/04 00:45:34;;;;;;;;;;;;;;;21.67;15.06;98723.06;5084175;28;19924;-86
2023/12/04 00:48:00;;;;;;;;;;;;;;;21.70;15.04;98722.25;5092168;28;19924;-85
2023/12/04 00:53:29;;;;;;;;;;;;;;;21.60;15.14;98732.25;5085601;28;20308;-85
2023/12/04 00:55:55;;;;;;;;;;;;;;;21.22;15.49;98730.28;5090366;28;19981;-87
2023/12/04 00:58:21;;;;;;;;;;;;;;;21.07;15.68;98732.28;5090790;28;19924;-85
2023/12/04 01:00:48;;;;;;;;;;;;;;;21.46;15.41;98735.06;5079949;28;19927;-85
2023/12/04 01:03:14;;;;;;;;;;;;;;;21.75;15.12;98735.81;5086456;28;20265;-85
2023/12/04 01:05:40;;;;;;;;;;;;;;;21.94;15.17;98738.97;5094225;28;20387;-85
2023/12/04 01:08:06;;;;;;;;;;;;;;;22.14;14.94;98732.94;5088733;28;19962;-85
2023/12/04 01:10:33;;;;;;;;;;;;;;;21.59;15.21;98738.22;5084553;28;19975;-85
2023/12/04 01:12:59;;;;;;;;;;;;;;;21.58;15.17;98740.25;5096076;28;19961;-85
2023/12/04 01:15:25;;;;;;;;;;;;;;;21.72;14.99;98740.22;5090380;28;20261;-85
2023/12/04 01:17:51;;;;;;;;;;;;;;;21.84;15.05;98742.59;5088340;28;20007;-85
2023/12/04 01:20:17;;;;;;;;;;;;;;;21.80;14.79;98743.78;5090952;28;20287;-85
2023/12/04 01:22:43;;;;;;;;;;;;;;;21.84;14.97;98736.22;5090802;28;19975;-85
2023/12/04 01:25:10;;;;;;;;;;;;;;;22.08;14.84;98738.13;5093223;28;19920;-86
2023/12/04 01:27:37;;;;;;;;;;;;;;;22.13;14.80;98740.53;5069010;28;19924;-86
2023/12/04 01:30:05;;;;;;;;;;;;;;;22.17;14.52;98746.13;5089743;28;19928;-86
2023/12/04 01:32:31;;;;;;;;;;;;;;;22.14;14.36;98744.13;5090788;28;19955;-86
2023/12/04 01:34:57;;;;;;;;;;;;;;;21.78;14.57;98740.59;5098752;28;20371;-86
2023/12/04 01:37:23;;;;;;;;;;;;;;;21.77;14.43;98730.63;5097570;28;19963;-86
2023/12/04 01:39:49;;;;;;;;;;;;;;;21.73;14.34;98738.19;5093956;28;20025;-86
2023/12/04 01:42:15;;;;;;;;;;;;;;;21.63;14.74;98745.44;5114564;28;19920;-86
2023/12/04 01:44:41;;;;;;;;;;;;;;;21.62;14.56;98749.41;5107837;28;20018;-86
2023/12/04 01:47:07;;;;;;;;;;;;;;;21.54;14.53;98738.66;5089067;28;19965;-86
2023/12/04 01:49:33;;;;;;;;;;;;;;;21.43;14.72;98743.44;5096921;28;19927;-86
2023/12/04 01:52:00;;;;;;;;;;;;;;;21.47;14.85;98731.06;5092088;28;19924;-86
2023/12/04 01:54:26;;;;;;;;;;;;;;;21.28;15.12;98737.84;5086589;28;20005;-86
2023/12/04 01:56:52;;;;;;;;;;;;;;;21.09;15.18;98741.06;5092750;28;19927;-86
2023/12/04 01:59:18;;;;;;;;;;;;;;;20.85;15.37;98750.16;5096178;28;19920;-86
2023/12/04 02:01:44;;;;;;;;;;;;;;;20.68;15.19;98742.53;5090801;28;19920;-86
2023/12/04 02:04:11;;;;;;;;;;;;;;;20.65;15.17;98737.78;5076766;28;19920;-86
2023/12/04 02:06:37;;;;;;;;;;;;;;;20.72;15.26;98737.78;5088342;28;19994;-86
2023/12/04 02:09:06;;;;;;;;;;;;;;;20.71;15.56;98733.38;5095860;28;19931;-86
2023/12/04 02:11:32;;;;;;;;;;;;;;;20.70;15.27;98742.94;5092958;28;19965;-86
2023/12/04 02:13:58;;;;;;;;;;;;;;;20.75;15.38;98727.84;5085747;28;19920;-86
2023/12/04 02:16:27;;;;;;;;;;;;;;;20.84;15.32;98722.66;5093588;28;19970;-86
2023/12/04 02:18:53;;;;;;;;;;;;;;;21.00;14.92;98725.88;5080047;28;21295;-86
2023/12/04 02:21:19;;;;;;;;;;;;;;;21.08;15.10;98730.28;5096073;28;20387;-86
2023/12/04 02:23:49;;;;;;;;;;;;;;;21.21;14.69;98723.88;5096157;28;19963;-86
2023/12/04 02:26:16;;;;;;;;;;;;;;;21.15;14.72;98721.91;5087678;28;19920;-86
2023/12/04 02:28:45;;;;;;;;;;;;;;;20.90;15.00;98721.06;5098555;28;19946;-86
2023/12/04 02:31:11;;;;;;;;;;;;;;;20.26;15.51;98712.53;5094730;28;19924;-86
2023/12/04 02:33:38;;;;;;;;;;;;;;;19.98;15.81;98707.63;5096130;28;19916;-86
2023/12/04 02:36:05;;;;;;;;;;;;;;;19.83;16.00;98700.41;5091790;28;19920;-86
2023/12/04 02:38:31;;;;;;;;;;;;;;;19.85;15.86;98709.16;5077799;28;19963;-86
2023/12/04 02:40:57;;;;;;;;;;;;;;;19.53;16.06;98702.63;5095591;28;19927;-86
2023/12/04 02:43:23;;;;;;;;;;;;;;;19.45;16.06;98711.28;5096933;28;20050;-86
2023/12/04 02:45:50;;;;;;;;;;;;;;;19.32;16.11;98708.78;5077147;28;20433;-86
2023/12/04 02:48:16;;;;;;;;;;;;;;;19.19;16.71;98713.06;5099246;28;19920;-85
2023/12/04 02:50:42;;;;;;;;;;;;;;;19.29;16.22;98717.94;5085075;28;20022;-85
2023/12/04 02:53:08;;;;;;;;;;;;;;;19.32;16.43;98721.94;5073752;28;20384;-86
2023/12/04 02:55:34;;;;;;;;;;;;;;;19.48;16.02;98722.47;5092416;28;19920;-86
2023/12/04 02:58:00;;;;;;;;;;;;;;;19.53;15.87;98721.31;5092279;28;20388;-85
2023/12/04 03:00:26;;;;;;;;;;;;;;;19.51;16.14;98723.69;5108153;28;19924;-85
2023/12/04 03:02:52;;;;;;;;;;;;;;;19.34;16.37;98730.69;5090070;28;19921;-85
2023/12/04 03:05:19;;;;;;;;;;;;;;;19.62;16.13;98733.72;5098283;28;19943;-86
2023/12/04 03:07:45;;;;;;;;;;;;;;;19.92;15.80;98727.91;5091258;28;19920;-86
2023/12/04 03:10:11;;;;;;;;;;;;;;;20.23;15.33;98730.06;5081854;28;19978;-86
2023/12/04 03:12:38;;;;;;;;;;;;;;;20.36;15.65;98730.50;5087460;28;19920;-86
2023/12/04 03:15:05;;;;;;;;;;;;;;;20.51;15.04;98730.13;5086799;28;20283;-85
2023/12/04 03:17:31;;;;;;;;;;;;;;;20.17;15.30;98736.38;5098714;28;20011;-86
2023/12/04 03:19:57;;;;;;;;;;;;;;;20.31;15.31;98736.44;5098781;28;20367;-86
2023/12/04 03:22:24;;;;;;;;;;;;;;;20.25;15.56;98735.25;5080742;28;19924;-86
2023/12/04 03:24:50;;;;;;;;;;;;;;;20.33;15.50;98746.03;5092462;28;20006;-86
2023/12/04 03:27:16;;;;;;;;;;;;;;;20.24;15.70;98753.97;5078193;28;19927;-86
2023/12/04 03:29:42;;;;;;;;;;;;;;;20.57;15.44;98747.31;5074582;28;19924;-86
2023/12/04 03:32:08;;;;;;;;;;;;;;;20.88;15.33;98754.16;5085553;28;19924;-86
2023/12/04 03:34:34;;;;;;;;;;;;;;;21.19;15.11;98745.81;5084099;28;20066;-86
2023/12/04 03:37:00;;;;;;;;;;;;;;;21.12;14.95;98745.81;5091239;28;19920;-86
2023/12/04 03:39:26;;;;;;;;;;;;;;;21.26;14.62;98740.25;5090953;28;19922;-86
2023/12/04 03:41:52;;;;;;;;;;;;;;;21.48;14.86;98746.63;5090119;28;20435;-86
2023/12/04 03:44:18;;;;;;;;;;;;;;;21.65;14.70;98750.59;5099608;28;19920;-86
2023/12/04 03:46:44;;;;;;;;;;;;;;;21.18;14.68;98749.84;5087503;28;20018;-86
2023/12/04 03:49:11;;;;;;;;;;;;;;;20.61;15.04;98753.69;5094597;28;20318;-86
2023/12/04 03:51:37;;;;;;;;;;;;;;;20.69;15.03;98755.31;5094824;28;19932;-86
2023/12/04 03:54:03;;;;;;;;;;;;;;;20.73;15.00;98755.31;5102355;28;19919;-86
2023/12/04 03:56:29;;;;;;;;;;;;;;;20.86;15.31;98750.97;5098496;28;19967;-86
2023/12/04 03:58:55;;;;;;;;;;;;;;;20.83;15.34;98754.53;5099957;28;19942;-86
2023/12/04 04:01:21;;;;;;;;;;;;;;;21.10;15.03;98764.16;5086746;28;20295;-86
2023/12/04 04:03:47;;;;;;;;;;;;;;;21.18;14.91;98757.41;5088798;28;19920;-87
2023/12/04 04:06:14;;;;;;;;;;;;;;;21.42;14.93;98759.41;5091589;28;19943;-87
2023/12/04 04:08:40;;;;;;;;;;;;;;;21.49;14.73;98764.19;5108497;28;19955;-86
2023/12/04 04:11:07;;;;;;;;;;;;;;;20.88;14.92;98768.13;5092738;28;19967;-86
2023/12/04 04:13:33;;;;;;;;;;;;;;;20.53;15.06;98764.03;5093029;28;19921;-86
2023/12/04 04:15:59;;;;;;;;;;;;;;;20.61;15.28;98774.03;5091578;28;19920;-86
2023/12/04 04:18:25;;;;;;;;;;;;;;;21.00;15.07;98778.91;5080266;28;19925;-86
2023/12/04 04:20:51;;;;;;;;;;;;;;;21.28;14.93;98771.38;5095116;28;19953;-86
2023/12/04 04:23:17;;;;;;;;;;;;;;;21.48;14.81;98768.19;5093061;28;20415;-86
2023/12/04 04:25:45;;;;;;;;;;;;;;;21.63;14.70;98773.38;5093517;28;20291;-86
2023/12/04 04:28:11;;;;;;;;;;;;;;;21.64;14.76;98766.56;5094463;28;19931;-85
2023/12/04 04:30:38;;;;;;;;;;;;;;;21.51;14.84;98773.78;5087386;28;19927;-85
2023/12/04 04:33:04;;;;;;;;;;;;;;;21.69;14.77;98765.38;5093003;28;19920;-86
2023/12/04 04:35:30;;;;;;;;;;;;;;;21.38;14.84;98764.19;5094946;28;20288;-86
2023/12/04 04:37:57;;;;;;;;;;;;;;;21.33;15.08;98761.81;5093533;28;19916;-85
2023/12/04 04:40:23;;;;;;;;;;;;;;;21.26;14.95;98779.34;5089304;28;19920;-85
2023/12/04 04:42:49;;;;;;;;;;;;;;;21.03;15.15;98772.50;5087269;28;20395;-85
2023/12/04 04:45:15;;;;;;;;;;;;;;;20.68;15.47;98773.22;5091645;28;19921;-86
2023/12/04 04:47:41;;;;;;;;;;;;;;;20.71;15.63;98780.81;5084325;28;19925;-85
2023/12/04 04:50:08;;;;;;;;;;;;;;;20.96;15.22;98775.28;5078687;28;20376;-85
2023/12/04 04:52:34;;;;;;;;;;;;;;;21.12;15.04;98778.56;5101511;28;19921;-85
2023/12/04 04:55:00;;;;;;;;;;;;;;;21.15;14.90;98770.16;5088547;28;19927;-86
2023/12/04 04:57:26;;;;;;;;;;;;;;;21.10;15.14;98781.72;5091500;28;20006;-85
2023/12/04 04:59:52;;;;;;;;;;;;;;;20.99;15.17;98785.66;5085015;28;19974;-85
2023/12/04 05:02:18;;;;;;;;;;;;;;;20.89;15.58;98778.06;5087633;28;19994;-86
2023/12/04 05:04:44;;;;;;;;;;;;;;;20.94;15.39;98783.25;5078227;28;19928;-85
2023/12/04 05:07:10;;;;;;;;;;;;;;;21.03;15.43;98786.47;5091707;28;20011;-85
2023/12/04 05:09:36;;;;;;;;;;;;;;;21.19;15.39;98796.09;5092754;28;19926;-86
2023/12/04 05:12:03;;;;;;;;;;;;;;;21.55;15.17;98794.13;5103572;28;20089;-85
2023/12/04 05:14:29;;;;;;;;;;;;;;;21.80;14.85;98792.09;5084658;28;19948;-84
2023/12/04 05:16:55;;;;;;;;;;;;;;;21.54;15.09;98786.16;5090320;28;19920;-83
2023/12/04 05:19:21;;;;;;;;;;;;;;;21.51;15.29;98784.94;5087659;28;19966;-85
2023/12/04 05:21:47;;;;;;;;;;;;;;;21.64;14.94;98786.13;5090146;28;19927;-84
2023/12/04 05:24:13;;;;;;;;;;;;;;;21.54;14.78;98780.56;5091542;28;20268;-85
2023/12/04 05:26:39;;;;;;;;;;;;;;;21.76;14.88;98777.34;5097813;28;19973;-83
2023/12/04 05:29:05;;;;;;;;;;;;;;;21.99;14.94;98782.50;5093483;28;20015;-82
2023/12/04 05:31:31;;;;;;;;;;;;;;;22.03;14.77;98780.53;5084980;28;19924;-83
2023/12/04 05:33:57;;;;;;;;;;;;;;;22.11;14.78;98779.28;5094347;28;19920;-82
2023/12/04 05:36:24;;;;;;;;;;;;;;;22.17;14.70;98780.44;5094151;28;20378;-85
2023/12/04 05:38:50;;;;;;;;;;;;;;;22.11;14.65;98775.69;5084617;28;19978;-85
2023/12/04 05:41:16;;;;;;;;;;;;;;;21.85;14.99;98776.94;5082239;28;19921;-84
2023/12/04 05:43:42;;;;;;;;;;;;;;;21.78;14.81;98780.53;5086742;28;19981;-84
2023/12/04 05:46:08;;;;;;;;;;;;;;;21.29;15.38;98788.94;5089913;28;19927;-84
2023/12/04 05:48:34;;;;;;;;;;;;;;;21.12;15.29;98786.94;5082114;28;19920;-83
2023/12/04 05:51:00;;;;;;;;;;;;;;;20.76;15.75;98788.00;5082274;28;20453;-84
2023/12/04 05:53:26;;;;;;;;;;;;;;;21.14;15.46;98781.75;5090398;28;20009;-84
2023/12/04 05:55:52;;;;;;;;;;;;;;;21.44;15.19;98784.16;5093471;28;20307;-87
2023/12/04 05:58:18;;;;;;;;;;;;;;;21.14;15.34;98782.53;5090434;28;20002;-85
2023/12/04 06:00:44;;;;;;;;;;;;;;;20.25;16.04;98785.44;5092892;28;20405;-86
2023/12/04 06:03:10;;;;;;;;;;;;;;;20.51;16.10;98783.13;5091687;28;19916;-85
2023/12/04 06:05:37;;;;;;;;;;;;;;;21.02;15.57;98790.47;5092070;28;20430;-86
2023/12/04 06:08:03;;;;;;;;;;;;;;;21.41;15.37;98779.34;5094351;28;19939;-85
2023/12/04 06:10:29;;;;;;;;;;;;;;;21.63;15.24;98787.34;5096168;28;19920;-86
2023/12/04 06:12:55;;;;;;;;;;;;;;;21.77;15.02;98783.72;5095502;28;20264;-86
2023/12/04 06:15:21;;;;;;;;;;;;;;;21.65;15.00;98786.94;5095502;28;19944;-86
2023/12/04 06:17:47;;;;;;;;;;;;;;;21.35;15.44;98782.53;5087051;28;20342;-86
2023/12/04 06:20:13;;;;;;;;;;;;;;;21.49;15.24;98789.34;5075037;28;19917;-85
2023/12/04 06:22:39;;;;;;;;;;;;;;;21.87;14.92;98785.72;5089810;28;19963;-86
2023/12/04 06:25:06;;;;;;;;;;;;;;;22.17;14.78;98786.03;5116846;28;20030;-86
2023/12/04 06:27:32;;;;;;;;;;;;;;;22.08;14.75;98784.91;5116170;28;19959;-84
2023/12/04 06:29:58;;;;;;;;;;;;;;;21.62;14.94;98784.94;5116498;28;20283;-86
2023/12/04 06:32:24;;;;;;;;;;;;;;;21.34;15.49;98792.13;5103098;28;19920;-85
2023/12/04 06:34:51;;;;;;;;;;;;;;;21.67;15.15;98781.75;5094554;28;20391;-86
2023/12/04 06:37:17;;;;;;;;;;;;;;;22.02;14.98;98774.13;5095744;28;19923;-86
2023/12/04 06:39:44;;;;;;;;;;;;;;;22.13;15.01;98782.47;5095488;28;19916;-86
2023/12/04 06:42:11;;;;;;;;;;;;;;;21.94;14.84;98777.31;5095734;28;19922;-86
2023/12/04 06:44:37;;;;;;;;;;;;;;;21.87;15.10;98777.34;5076988;28;20344;-86
2023/12/04 06:47:04;;;;;;;;;;;;;;;21.83;15.12;98782.13;5095340;28;19916;-86
2023/12/04 06:49:31;;;;;;;;;;;;;;;21.75;15.21;98783.34;5095786;28;19923;-86
2023/12/04 06:51:58;;;;;;;;;;;;;;;21.65;15.33;98781.34;5093752;28;19942;-86
2023/12/04 06:54:24;;;;;;;;;;;;;;;21.58;15.15;98786.94;5095549;28;20073;-86
2023/12/04 06:56:50;;;;;;;;;;;;;;;21.66;15.27;98789.31;5095311;28;20357;-86
2023/12/04 06:59:19;;;;;;;;;;;;;;;21.75;15.18;98784.13;5095775;28;19952;-85
2023/12/04 07:01:46;;;;;;;;;;;;;;;22.10;15.06;98785.28;5095658;28;19959;-86
2023/12/04 07:04:12;;;;;;;;;;;;;;;22.34;14.77;98790.78;5095454;28;20019;-86
2023/12/04 07:06:38;;;;;;;;;;;;;;;22.27;14.88;98793.63;5093172;28;19920;-85
2023/12/04 07:09:07;;;;;;;;;;;;;;;22.15;14.95;98790.47;5092516;28;19920;-86
2023/12/04 07:11:33;;;;;;;;;;;;;;;21.77;15.48;98797.72;5095044;28;19922;-86
2023/12/04 07:13:59;;;;;;;;;;;;;;;21.72;15.27;98792.53;5095097;28;20379;-86
2023/12/04 07:16:25;;;;;;;;;;;;;;;21.18;15.73;98796.50;5095127;28;20394;-86
2023/12/04 07:18:51;;;;;;;;;;;;;;;20.83;16.21;98794.41;5095374;28;20371;-86
2023/12/04 07:21:17;;;;;;;;;;;;;;;20.98;15.93;98786.88;5078625;28;20376;-86
2023/12/04 07:23:44;;;;;;;;;;;;;;;20.43;16.33;98786.31;5089188;28;20363;-86
2023/12/04 07:26:10;;;;;;;;;;;;;;;20.13;16.62;98785.75;5093178;28;19916;-86
2023/12/04 07:28:36;;;;;;;;;;;;;;;20.29;16.63;98795.41;5082748;28;19966;-86
2023/12/04 07:31:02;;;;;;;;;;;;;;;20.58;16.27;98787.97;5094580;28;19920;-86
2023/12/04 07:33:29;;;;;;;;;;;;;;;19.89;16.60;98793.56;5094650;28;20364;-85
2023/12/04 07:35:55;;;;;;;;;;;;;;;19.92;16.78;98787.22;5094630;28;19927;-85
2023/12/04 07:38:21;;;;;;;;;;;;;;;20.58;16.00;98790.75;5094681;28;20345;-86
2023/12/04 07:40:47;;;;;;;;;;;;;;;20.79;16.02;98790.03;5094696;28;20375;-86
2023/12/04 07:43:16;;;;;;;;;;;;;;;20.68;16.21;98787.19;5083225;28;19916;-85
2023/12/04 07:45:42;;;;;;;;;;;;;;;20.75;16.05;98794.81;5082011;28;20390;-85
2023/12/04 07:48:08;;;;;;;;;;;;;;;21.14;15.74;98798.50;5094182;28;19923;-85
2023/12/04 07:50:35;;;;;;;;;;;;;;;21.13;15.40;98792.13;5094267;28;20415;-86
2023/12/04 07:53:01;;;;;;;;;;;;;;;20.97;15.42;98791.66;5094465;28;19969;-86
2023/12/04 07:55:27;;;;;;;;;;;;;;;20.58;15.63;98787.97;5093963;28;19973;-86
2023/12/04 07:57:53;;;;;;;;;;;;;;;20.50;15.64;98789.94;5093930;28;19916;-86
2023/12/04 08:00:19;;;;;;;;;;;;;;;20.47;15.76;98792.69;5082247;28;19916;-86
2023/12/04 08:02:46;;;;;;;;;;;;;;;20.79;15.52;98795.59;5077204;28;19927;-86
2023/12/04 08:05:12;;;;;;;;;;;;;;;20.43;15.58;98803.03;5093945;28;19981;-86
2023/12/04 08:07:38;;;;;;;;;;;;;;;19.95;16.16;98786.44;5094405;28;19916;-86
2023/12/04 08:10:06;;;;;;;;;;;;;;;19.73;16.24;98804.22;5093661;28;19923;-86
2023/12/04 08:12:33;;;;;;;;;;;;;;;20.18;15.90;98802.09;5094243;28;19920;-86
2023/12/04 08:15:00;;;;;;;;;;;;;;;20.79;15.39;98801.19;5093810;28;19959;-85
2023/12/04 08:17:27;;;;;;;;;;;;;;;21.03;15.06;98800.44;5080578;28;19916;-85
2023/12/04 08:19:54;;;;;;;;;;;;;;;20.74;15.35;98796.78;5073624;28;20015;-85
2023/12/04 08:22:20;;;;;;;;;;;;;;;19.98;15.93;98799.59;5082696;28;19926;-86
2023/12/04 08:24:46;;;;;;;;;;;;;;;20.35;15.71;98791.03;5114191;28;19920;-86
2023/12/04 08:27:12;;;;;;;;;;;;;;;20.16;15.82;98796.13;5095784;28;19919;-85
2023/12/04 08:29:41;;;;;;;;;;;;;;;20.58;15.49;98791.53;5096311;28;20325;-85
2023/12/04 08:32:07;;;;;;;;;;;;;;;21.05;15.41;98796.06;5092560;28;19939;-85
2023/12/04 08:34:33;;;;;;;;;;;;;;;21.21;14.91;98793.69;5079822;28;19924;-85
2023/12/04 08:36:59;;;;;;;;;;;;;;;21.39;14.72;98790.13;5073708;28;20003;-85
2023/12/04 08:39:26;;;;;;;;;;;;;;;21.46;14.78;98802.09;5074341;28;19916;-86
2023/12/04 08:41:52;;;;;;;;;;;;;;;21.59;14.52;98785.72;5096713;28;20430;-86
2023/12/04 08:44:18;;;;;;;;;;;;;;;21.42;14.74;98789.34;5098030;28;19955;-86
2023/12/04 08:46:45;;;;;;;;;;;;;;;21.47;14.62;98795.31;5097370;28;19922;-85
2023/12/04 08:49:11;;;;;;;;;;;;;;;21.39;14.96;98799.31;5097942;28;19916;-85
2023/12/04 08:51:37;;;;;;;;;;;;;;;21.32;14.50;98802.91;5083214;28;19966;-86
2023/12/04 08:54:04;;;;;;;;;;;;;;;20.09;15.45;98812.81;5077489;28;20016;-85
2023/12/04 08:56:30;;;;;;;;;;;;;;;20.01;15.83;98809.16;5077452;28;19958;-85
2023/12/04 08:58:57;;;;;;;;;;;;;;;20.19;15.63;98804.50;5077254;28;19916;-85
2023/12/04 09:01:23;;;;;;;;;;;;;;;20.12;15.52;98803.69;5076969;28;20010;-85
2023/12/04 09:03:50;;;;;;;;;;;;;;;20.45;15.58;98807.03;5094199;28;19955;-85
2023/12/04 09:06:16;;;;;;;;;;;;;;;21.13;14.93;98805.28;5097678;28;19923;-85
2023/12/04 09:08:42;;;;;;;;;;;;;;;21.50;14.94;98804.88;5081646;28;20351;-86
2023/12/04 09:11:08;;;;;;;;;;;;;;;22.02;14.46;98804.09;5076966;28;19920;-85
2023/12/04 09:13:34;;;;;;;;;;;;;;;21.73;14.30;98796.91;5096579;28;19927;-85
2023/12/04 09:16:00;;;;;;;;;;;;;;;21.74;14.68;98795.72;5097254;28;19916;-85
2023/12/04 09:18:26;;;;;;;;;;;;;;;21.99;14.62;98796.50;5079176;28;19973;-85
2023/12/04 09:20:52;;;;;;;;;;;;;;;21.83;14.52;98799.69;5097567;28;19967;-85
2023/12/04 09:23:18;;;;;;;;;;;;;;;21.90;14.62;98784.94;5109951;28;19931;-85
2023/12/04 09:25:45;;;;;;;;;;;;;;;21.95;14.86;98788.13;5085854;28;19916;-85
2023/12/04 09:28:11;;;;;;;;;;;;;;;22.27;14.13;98776.03;5083844;28;19919;-85
2023/12/04 09:30:37;;;;;;;;;;;;;;;22.44;14.08;98775.16;5096688;28;19970;-85
2023/12/04 09:33:03;;;;;;;;;;;;;;;22.62;14.26;98771.13;5096942;28;20022;-85
2023/12/04 09:35:29;;;;;;;;;;;;;;;22.83;13.83;98780.59;5097015;28;19970;-85
2023/12/04 09:37:56;;;;;;;;;;;;;;;22.71;14.08;98775.50;5096737;28;20010;-84
2023/12/04 09:40:23;;;;;;;;;;;;;;;22.72;14.02;98774.25;5097043;28;19919;-85
2023/12/04 09:42:49;;;;;;;;;;;;;;;22.76;13.82;98761.84;5080332;28;19939;-85
2023/12/04 09:45:15;;;;;;;;;;;;;;;22.60;14.07;98767.09;5076326;28;20396;-84
2023/12/04 09:47:42;;;;;;;;;;;;;;;22.87;14.24;98767.41;5076836;28;20001;-85
2023/12/04 09:50:08;;;;;;;;;;;;;;;22.36;14.15;98748.41;5058362;28;19916;-85
2023/12/04 09:52:35;;;;;;;;;;;;;;;22.01;14.48;98744.56;5075339;28;20442;-84
2023/12/04 09:55:01;;;;;;;;;;;;;;;22.24;14.47;98740.50;5090066;28;20010;-85
2023/12/04 09:57:28;;;;;;;;;;;;;;;21.86;14.56;98743.00;5093433;28;19920;-85
2023/12/04 09:59:54;;;;;;;;;;;;;;;21.77;14.40;98741.81;5079459;28;20383;-84
2023/12/04 10:02:23;;;;;;;;;;;;;;;21.42;14.72;98742.66;5076119;28;19952;-85
2023/12/04 10:04:49;;;;;;;;;;;;;;;21.72;14.68;98729.03;5076013;28;19955;-85
2023/12/04 10:07:16;;;;;;;;;;;;;;;21.94;14.93;98727.00;5095267;28;20063;-85
2023/12/04 10:09:42;;;;;;;;;;;;;;;21.80;14.63;98719.41;5096262;28;20375;-84
2023/12/04 10:12:09;;;;;;;;;;;;;;;22.07;14.38;98719.78;5095237;28;19923;-85
2023/12/04 10:14:35;;;;;;;;;;;;;;;21.96;15.06;98717.00;5096331;28;19916;-85
2023/12/04 10:17:13;;;;;;;;;;;;;;;22.04;14.82;98709.41;5077958;28;19917;-84
2023/12/04 10:19:40;;;;;;;;;;;;;;;22.03;14.40;98710.63;5081894;28;19920;-85
2023/12/04 10:22:10;;;;;;;;;;;;;;;21.82;14.62;98716.25;5090017;28;20261;-85
2023/12/04 10:24:38;;;;;;;;;;;;;;;21.87;14.12;98713.03;5112466;28;19927;-85
2023/12/04 10:27:06;;;;;;;;;;;;;;;21.94;14.32;98713.00;5095361;28;19916;-85
2023/12/04 10:29:52;;;;;;;;;;;;;;;22.19;14.44;98708.16;5096098;28;19931;-85
2023/12/04 10:32:21;;;;;;;;;;;;;;;22.65;14.04;98703.13;5094977;28;19965;-85
2023/12/04 10:34:48;;;;;;;;;;;;;;;22.54;13.91;98705.16;5096129;28;19962;-85
2023/12/04 10:37:14;;;;;;;;;;;;;;;22.20;13.71;98695.75;5086201;28;19916;-85
2023/12/04 10:39:47;;;;;;;;;;;;;;;22.28;14.22;98693.72;5075391;28;19959;-85
2023/12/04 10:42:23;;;;;;;;;;;;;;;22.64;13.71;98698.72;5057056;28;20011;-85
2023/12/04 10:44:49;;;;;;;;;;;;;;;23.01;13.82;98702.88;5075815;28;19916;-85
2023/12/04 10:47:15;;;;;;;;;;;;;;;23.20;13.75;98693.91;5075246;28;19980;-85
2023/12/04 10:49:42;;;;;;;;;;;;;;;23.09;13.49;98693.19;5076003;28;19928;-85
2023/12/04 10:52:10;;;;;;;;;;;;;;;23.34;14.07;98688.16;5087733;28;20402;-85
2023/12/04 10:54:36;;;;;;;;;;;;;;;23.32;13.26;98682.19;5088657;28;19931;-85
2023/12/04 10:57:04;;;;;;;;;;;;;;;23.13;13.87;98679.97;5094996;28;20023;-85
2023/12/04 10:59:34;;;;;;;;;;;;;;;23.19;13.92;98683.94;5094449;28;19961;-85
2023/12/04 11:02:02;;;;;;;;;;;;;;;23.54;14.20;98680.00;5095042;28;19954;-85
2023/12/04 11:04:31;;;;;;;;;;;;;;;23.66;13.54;98674.69;5095156;28;20010;-85
2023/12/04 11:06:59;;;;;;;;;;;;;;;23.67;13.78;98667.03;5085737;28;19916;-85
2023/12/04 11:09:26;;;;;;;;;;;;;;;23.74;13.04;98666.97;5074665;28;19916;-85
2023/12/04 11:11:56;;;;;;;;;;;;;;;23.24;13.36;98659.03;5075031;28;19927;-85
2023/12/04 11:14:25;;;;;;;;;;;;;;;23.16;13.82;98653.94;5074982;28;19994;-85
2023/12/04 11:16:56;;;;;;;;;;;;;;;23.51;13.62;98653.59;5074868;28;20265;-85
2023/12/04 11:19:35;;;;;;;;;;;;;;;23.75;14.23;98654.56;5075001;28;19916;-85
2023/12/04 11:22:02;;;;;;;;;;;;;;;22.97;14.24;98651.69;5084712;28;19920;-85
2023/12/04 11:24:28;;;;;;;;;;;;;;;23.05;14.67;98644.81;5075623;28;19963;-85
2023/12/04 11:26:54;;;;;;;;;;;;;;;23.48;13.24;98643.22;5074679;28;20011;-85
2023/12/04 11:29:21;;;;;;;;;;;;;;;23.05;13.59;98639.22;5084446;28;19966;-85
2023/12/04 11:31:47;;;;;;;;;;;;;;;22.71;13.81;98635.53;5094937;28;19920;-85
2023/12/04 11:34:13;;;;;;;;;;;;;;;22.99;14.56;98641.66;5094702;28;20376;-85
2023/12/04 11:36:39;;;;;;;;;;;;;;;23.05;14.03;98639.22;5094395;28;19925;-85
2023/12/04 11:39:10;;;;;;;;;;;;;;;23.06;14.29;98643.59;5094368;28;20362;-85
2023/12/04 11:41:37;;;;;;;;;;;;;;;23.39;13.30;98640.13;5080030;28;19916;-85
2023/12/04 11:44:03;;;;;;;;;;;;;;;23.72;14.04;98633.75;5074280;28;19959;-85
2023/12/04 11:46:30;;;;;;;;;;;;;;;23.75;13.18;98629.31;5074443;28;19924;-85
2023/12/04 11:49:16;;;;;;;;;;;;;;;23.00;13.70;98625.66;5074056;28;19916;-85
2023/12/04 11:51:44;;;;;;;;;;;;;;;23.36;13.52;98629.75;5085565;28;19982;-85
2023/12/04 11:54:10;;;;;;;;;;;;;;;23.69;13.74;98616.97;5094226;28;20017;-85
2023/12/04 11:56:36;;;;;;;;;;;;;;;23.76;13.65;98609.25;5094359;28;20367;-85
2023/12/04 11:59:03;;;;;;;;;;;;;;;24.03;12.65;98617.75;5076235;28;19927;-86
2023/12/04 12:01:33;;;;;;;;;;;;;;;23.61;13.36;98621.06;5073704;28;20392;-85
2023/12/04 12:03:59;;;;;;;;;;;;;;;23.40;13.49;98618.50;5073865;28;20364;-85
2023/12/04 12:06:25;;;;;;;;;;;;;;;23.14;13.44;98608.72;5073697;28;19916;-86
2023/12/04 12:08:51;;;;;;;;;;;;;;;23.31;13.95;98602.16;5073902;28;19917;-85
2023/12/04 12:11:18;;;;;;;;;;;;;;;23.56;13.76;98605.50;5073775;28;19920;-85
2023/12/04 12:13:44;;;;;;;;;;;;;;;23.73;13.46;98601.72;5073642;28;19924;-85
2023/12/04 12:16:11;;;;;;;;;;;;;;;23.97;13.82;98599.78;5088947;28;20439;-85
2023/12/04 12:18:37;;;;;;;;;;;;;;;24.02;13.71;98602.91;5093311;28;19920;-85
2023/12/04 12:21:03;;;;;;;;;;;;;;;23.43;13.94;98593.25;5093971;28;20298;-85
2023/12/04 12:23:29;;;;;;;;;;;;;;;23.29;13.71;98596.94;5107844;28;19923;-85
2023/12/04 12:25:55;;;;;;;;;;;;;;;23.34;13.41;98599.34;5114263;28;19915;-85
2023/12/04 12:28:22;;;;;;;;;;;;;;;23.51;13.92;98605.97;5114237;28;19923;-85
2023/12/04 12:30:48;;;;;;;;;;;;;;;23.61;13.74;98596.66;5114276;28;20390;-85
2023/12/04 12:33:15;;;;;;;;;;;;;;;23.71;13.39;98600.53;5092476;28;19920;-85
2023/12/04 12:35:41;;;;;;;;;;;;;;;23.30;13.88;98592.16;5093454;28;19927;-86
2023/12/04 12:38:08;;;;;;;;;;;;;;;23.17;14.13;98583.50;5093010;28;20033;-86
2023/12/04 12:40:34;;;;;;;;;;;;;;;23.63;13.58;98585.00;5093507;28;19982;-86
2023/12/04 12:43:05;;;;;;;;;;;;;;;23.88;13.60;98577.88;5093038;28;20015;-86
2023/12/04 12:45:38;;;;;;;;;;;;;;;23.95;13.25;98577.78;5093750;28;19916;-86
2023/12/04 12:48:04;;;;;;;;;;;;;;;23.76;13.45;98567.19;5091854;28;19916;-86